createdAt,value
2023-05-06T00:02:07.170Z,14.50
2023-05-06T00:04:13.312Z,14.50
2023-05-06T00:06:21.621Z,14.50
2023-05-06T00:08:26.906Z,14.50
2023-05-06T00:10:31.721Z,14.40
2023-05-06T00:12:40.461Z,14.30
2023-05-06T00:14:45.605Z,14.40
2023-05-06T00:16:51.907Z,14.50
2023-05-06T00:18:59.781Z,14.60
2023-05-06T00:21:04.964Z,14.60
2023-05-06T00:23:11.556Z,14.50
2023-05-06T00:25:16.594Z,13.90
2023-05-06T00:27:21.875Z,14.00
2023-05-06T00:29:27.266Z,14.30
2023-05-06T00:31:32.107Z,14.40
2023-05-06T00:33:36.983Z,14.20
2023-05-06T00:35:44.503Z,13.40
2023-05-06T00:37:50.088Z,13.60
2023-05-06T00:39:55.202Z,13.80
2023-05-06T00:42:02.469Z,13.50
2023-05-06T00:44:11.128Z,13.50
2023-05-06T00:46:18.338Z,13.30
2023-05-06T00:48:24.241Z,13.70
2023-05-06T00:50:32.638Z,13.90
2023-05-06T00:52:44.983Z,14.00
2023-05-06T00:54:50.514Z,14.20
2023-05-06T00:56:56.201Z,14.20
2023-05-06T00:59:02.459Z,14.30
2023-05-06T01:01:08.503Z,14.30
2023-05-06T01:03:13.970Z,14.30
2023-05-06T01:05:22.856Z,14.10
2023-05-06T01:07:38.898Z,13.60
2023-05-06T01:09:52.790Z,13.40
2023-05-06T01:12:05.265Z,13.50
2023-05-06T01:14:16.517Z,13.40
2023-05-06T01:16:23.654Z,13.50
2023-05-06T01:18:30.106Z,13.60
2023-05-06T01:20:39.520Z,13.80
2023-05-06T01:22:48.948Z,13.90
2023-05-06T01:24:56.876Z,14.10
2023-05-06T01:27:01.735Z,14.10
2023-05-06T01:29:07.206Z,14.20
2023-05-06T01:31:16.070Z,14.20
2023-05-06T01:33:26.112Z,14.10
2023-05-06T01:35:44.420Z,14.00
2023-05-06T01:37:58.067Z,13.90
2023-05-06T01:40:08.515Z,13.50
2023-05-06T01:42:16.853Z,13.40
2023-05-06T01:44:26.915Z,13.30
2023-05-06T01:46:32.971Z,13.60
2023-05-06T01:48:40.165Z,13.80
2023-05-06T01:50:46.000Z,13.80
2023-05-06T01:53:01.971Z,13.90
2023-05-06T01:55:11.560Z,13.90
2023-05-06T01:57:17.633Z,13.80
2023-05-06T01:59:24.052Z,13.90
2023-05-06T02:01:33.570Z,13.80
2023-05-06T02:03:38.637Z,13.10
2023-05-06T02:05:43.942Z,12.80
2023-05-06T02:07:52.524Z,12.60
2023-05-06T02:10:00.597Z,12.30
2023-05-06T02:12:10.011Z,12.50
2023-05-06T02:14:18.248Z,12.70
2023-05-06T02:16:28.960Z,12.80
2023-05-06T02:18:33.941Z,13.20
2023-05-06T02:20:39.520Z,13.30
2023-05-06T02:22:47.299Z,13.30
2023-05-06T02:24:52.475Z,13.50
2023-05-06T02:26:58.337Z,13.50
2023-05-06T02:29:06.108Z,13.40
2023-05-06T02:31:16.491Z,13.60
2023-05-06T02:33:22.288Z,13.60
2023-05-06T02:35:28.876Z,13.60
2023-05-06T02:37:44.547Z,13.60
2023-05-06T02:39:49.747Z,13.70
2023-05-06T02:41:58.303Z,13.50
2023-05-06T02:44:08.968Z,13.30
2023-05-06T02:46:15.281Z,13.40
2023-05-06T02:48:20.157Z,13.50
2023-05-06T02:50:24.960Z,13.50
2023-05-06T02:52:34.780Z,13.50
2023-05-06T02:54:55.365Z,13.50
2023-05-06T02:57:01.611Z,13.70
2023-05-06T02:59:10.776Z,13.60
2023-05-06T03:01:15.923Z,13.40
2023-05-06T03:03:22.799Z,13.40
2023-05-06T03:05:27.652Z,13.40
2023-05-06T03:07:32.559Z,13.50
2023-05-06T03:09:37.712Z,13.30
2023-05-06T03:11:43.703Z,13.20
2023-05-06T03:13:48.799Z,12.70
2023-05-06T03:15:57.245Z,12.70
2023-05-06T03:18:02.664Z,12.60
2023-05-06T03:20:11.572Z,12.70
2023-05-06T03:22:21.953Z,12.80
2023-05-06T03:24:28.005Z,12.80
2023-05-06T03:26:41.304Z,12.70
2023-05-06T03:28:50.304Z,12.80
2023-05-06T03:31:01.531Z,13.20
2023-05-06T03:33:10.050Z,13.20
2023-05-06T03:35:15.970Z,12.80
2023-05-06T03:37:26.100Z,12.60
2023-05-06T03:39:34.526Z,12.90
2023-05-06T03:41:40.828Z,13.10
2023-05-06T03:43:49.436Z,13.20
2023-05-06T03:45:57.522Z,13.10
2023-05-06T03:48:05.420Z,13.20
2023-05-06T03:50:13.646Z,13.20
2023-05-06T03:52:19.781Z,13.20
2023-05-06T03:54:27.064Z,12.70
2023-05-06T03:56:33.284Z,13.00
2023-05-06T03:58:42.412Z,12.70
2023-05-06T04:00:49.474Z,12.40
2023-05-06T04:02:59.214Z,12.40
2023-05-06T04:05:13.789Z,12.40
2023-05-06T04:07:19.371Z,12.40
2023-05-06T04:09:24.245Z,12.30
2023-05-06T04:11:35.119Z,12.60
2023-05-06T04:13:45.473Z,12.90
2023-05-06T04:15:54.309Z,13.00
2023-05-06T04:18:04.846Z,13.10
2023-05-06T04:20:14.517Z,13.20
2023-05-06T04:22:21.518Z,13.00
2023-05-06T04:24:29.132Z,12.80
2023-05-06T04:26:35.983Z,12.80
2023-05-06T04:28:43.482Z,13.00
2023-05-06T04:30:51.598Z,13.00
2023-05-06T04:33:03.225Z,13.00
2023-05-06T04:35:22.828Z,13.10
2023-05-06T04:37:34.125Z,13.20
2023-05-06T04:39:49.937Z,13.10
2023-05-06T04:41:55.879Z,13.00
2023-05-06T04:44:09.614Z,13.20
2023-05-06T04:46:15.297Z,13.20
2023-05-06T04:48:22.468Z,13.30
2023-05-06T04:50:31.802Z,13.20
2023-05-06T04:52:38.875Z,13.30
2023-05-06T04:54:45.841Z,13.30
2023-05-06T04:56:51.496Z,13.30
2023-05-06T04:58:59.160Z,13.30
2023-05-06T05:01:09.343Z,13.30
2023-05-06T05:03:15.699Z,13.20
2023-05-06T05:05:23.631Z,13.00
2023-05-06T05:07:33.564Z,12.80
2023-05-06T05:09:46.616Z,12.80
2023-05-06T05:11:51.565Z,13.00
2023-05-06T05:13:58.077Z,13.10
2023-05-06T05:16:04.700Z,12.80
2023-05-06T05:18:11.588Z,12.70
2023-05-06T05:20:17.632Z,12.40
2023-05-06T05:22:24.655Z,12.50
2023-05-06T05:24:35.166Z,12.60
2023-05-06T05:26:40.299Z,12.90
2023-05-06T05:28:45.484Z,13.00
2023-05-06T05:30:51.230Z,13.00
2023-05-06T05:32:57.897Z,13.10
2023-05-06T05:35:10.840Z,12.80
2023-05-06T05:37:19.441Z,12.50
2023-05-06T05:39:24.731Z,12.10
2023-05-06T05:41:35.165Z,12.10
2023-05-06T05:43:40.564Z,12.50
2023-05-06T05:45:47.087Z,12.80
2023-05-06T05:47:53.962Z,12.90
2023-05-06T05:50:00.594Z,13.00
2023-05-06T05:52:08.270Z,13.10
2023-05-06T05:54:19.181Z,13.20
2023-05-06T05:56:25.294Z,13.40
2023-05-06T05:58:32.774Z,13.50
2023-05-06T06:00:39.469Z,13.50
2023-05-06T06:02:49.881Z,13.50
2023-05-06T06:04:58.625Z,13.50
2023-05-06T06:07:06.853Z,13.60
2023-05-06T06:09:17.631Z,13.60
2023-05-06T06:11:26.593Z,13.60
2023-05-06T06:13:36.593Z,13.70
2023-05-06T06:15:41.526Z,13.60
2023-05-06T06:17:47.943Z,13.60
2023-05-06T06:19:57.425Z,13.60
2023-05-06T06:22:03.769Z,13.50
2023-05-06T06:24:11.423Z,13.30
2023-05-06T06:26:16.649Z,13.30
2023-05-06T06:28:22.830Z,13.40
2023-05-06T06:30:32.467Z,13.50
2023-05-06T06:32:39.498Z,13.70
2023-05-06T06:34:44.353Z,13.60
2023-05-06T06:36:50.045Z,13.60
2023-05-06T06:38:54.862Z,13.70
2023-05-06T06:40:59.729Z,13.70
2023-05-06T06:43:13.717Z,13.50
2023-05-06T06:45:34.586Z,13.50
2023-05-06T06:47:39.766Z,13.20
2023-05-06T06:49:44.609Z,13.30
2023-05-06T06:51:56.868Z,13.40
2023-05-06T06:54:03.466Z,13.60
2023-05-06T06:56:12.877Z,13.80
2023-05-06T06:58:18.011Z,13.80
2023-05-06T07:00:22.909Z,13.60
2023-05-06T07:02:33.085Z,13.70
2023-05-06T07:04:38.787Z,13.70
2023-05-06T07:06:45.778Z,13.70
2023-05-06T07:08:50.614Z,13.60
2023-05-06T07:10:55.699Z,14.00
2023-05-06T07:13:00.952Z,14.30
2023-05-06T07:15:07.898Z,14.10
2023-05-06T07:17:12.923Z,14.10
2023-05-06T07:19:20.490Z,14.20
2023-05-06T07:21:25.303Z,14.30
2023-05-06T07:23:33.207Z,14.30
2023-05-06T07:25:38.404Z,14.40
2023-05-06T07:27:45.402Z,14.60
2023-05-06T07:29:50.296Z,14.70
2023-05-06T07:31:57.404Z,14.60
2023-05-06T07:34:02.309Z,14.30
2023-05-06T07:36:13.925Z,14.10
2023-05-06T07:38:23.602Z,14.20
2023-05-06T07:40:28.459Z,14.10
2023-05-06T07:42:39.265Z,14.00
2023-05-06T07:44:45.502Z,13.90
2023-05-06T07:46:51.049Z,14.00
2023-05-06T07:48:56.936Z,14.00
2023-05-06T07:51:03.413Z,14.00
2023-05-06T07:53:11.913Z,14.20
2023-05-06T07:55:22.799Z,14.10
2023-05-06T07:57:29.167Z,14.20
2023-05-06T07:59:34.432Z,14.30
2023-05-06T08:01:49.277Z,14.30
2023-05-06T08:03:56.007Z,14.30
2023-05-06T08:06:01.510Z,14.40
2023-05-06T08:08:13.436Z,14.40
2023-05-06T08:10:20.604Z,14.40
2023-05-06T08:12:25.917Z,14.50
2023-05-06T08:14:30.751Z,14.70
2023-05-06T08:16:38.841Z,14.80
2023-05-06T08:18:49.088Z,14.80
2023-05-06T08:20:54.767Z,14.90
2023-05-06T08:23:01.143Z,15.00
2023-05-06T08:25:09.725Z,15.10
2023-05-06T08:27:17.898Z,15.10
2023-05-06T08:29:24.852Z,15.20
2023-05-06T08:31:34.187Z,15.10
2023-05-06T08:33:39.400Z,15.10
2023-05-06T08:35:47.198Z,15.00
2023-05-06T08:37:52.477Z,15.20
2023-05-06T08:39:58.757Z,15.30
2023-05-06T08:42:16.122Z,15.20
2023-05-06T08:44:22.529Z,15.20
2023-05-06T08:46:31.373Z,15.40
2023-05-06T08:48:37.599Z,15.40
2023-05-06T08:50:46.173Z,15.40
2023-05-06T08:52:58.280Z,15.50
2023-05-06T08:55:07.044Z,15.30
2023-05-06T08:57:16.242Z,15.20
2023-05-06T08:59:26.891Z,15.30
2023-05-06T09:01:35.049Z,15.30
2023-05-06T09:03:41.263Z,15.50
2023-05-06T09:05:46.289Z,15.50
2023-05-06T09:07:52.790Z,15.50
2023-05-06T09:09:58.015Z,15.60
2023-05-06T09:12:04.504Z,15.60
2023-05-06T09:14:18.167Z,15.60
2023-05-06T09:16:36.796Z,15.60
2023-05-06T09:18:42.924Z,15.60
2023-05-06T09:20:51.167Z,15.70
2023-05-06T09:23:00.672Z,15.70
2023-05-06T09:25:05.903Z,15.80
2023-05-06T09:27:15.188Z,15.80
2023-05-06T09:29:24.486Z,15.70
2023-05-06T09:31:30.214Z,15.80
2023-05-06T09:33:40.002Z,15.80
2023-05-06T09:35:47.379Z,15.90
2023-05-06T09:37:52.468Z,16.00
2023-05-06T09:40:00.530Z,16.00
2023-05-06T09:42:05.879Z,16.20
2023-05-06T09:44:11.886Z,16.10
2023-05-06T09:46:28.814Z,15.90
2023-05-06T09:48:34.643Z,16.20
2023-05-06T09:50:41.413Z,16.50
2023-05-06T09:52:48.281Z,16.40
2023-05-06T09:54:55.014Z,16.50
2023-05-06T09:57:01.184Z,16.50
2023-05-06T09:59:09.301Z,16.60
2023-05-06T10:01:25.139Z,16.70
2023-05-06T10:03:45.254Z,16.60
2023-05-06T10:05:50.526Z,16.90
2023-05-06T10:07:58.359Z,16.80
2023-05-06T10:10:04.601Z,16.80
2023-05-06T10:12:11.603Z,16.80
2023-05-06T10:14:18.667Z,16.80
2023-05-06T10:16:23.854Z,16.80
2023-05-06T10:18:29.339Z,16.90
2023-05-06T10:20:38.428Z,16.90
2023-05-06T10:22:55.382Z,16.80
2023-05-06T10:25:07.253Z,16.90
2023-05-06T10:27:16.396Z,17.00
2023-05-06T10:29:21.855Z,17.10
2023-05-06T10:31:29.120Z,17.10
2023-05-06T10:33:34.350Z,17.20
2023-05-06T10:35:49.607Z,17.10
2023-05-06T10:37:55.093Z,17.10
2023-05-06T10:40:04.069Z,17.10
2023-05-06T10:42:12.998Z,17.30
2023-05-06T10:44:22.358Z,17.30
2023-05-06T10:46:29.182Z,17.30
2023-05-06T10:48:35.049Z,17.30
2023-05-06T10:50:40.926Z,17.60
2023-05-06T10:52:50.867Z,17.60
2023-05-06T10:54:57.442Z,17.60
2023-05-06T10:57:12.372Z,17.90
2023-05-06T10:59:32.273Z,17.90
2023-05-06T11:01:45.278Z,17.80
2023-05-06T11:03:52.649Z,18.10
2023-05-06T11:05:57.943Z,18.20
2023-05-06T11:08:15.540Z,18.00
2023-05-06T11:10:36.542Z,18.00
2023-05-06T11:12:49.907Z,18.10
2023-05-06T11:14:56.840Z,18.20
2023-05-06T11:17:03.064Z,18.30
2023-05-06T11:19:08.554Z,18.20
2023-05-06T11:21:41.377Z,18.20
2023-05-06T11:24:15.960Z,18.70
2023-05-06T11:26:25.838Z,19.00
2023-05-06T11:28:32.023Z,19.30
2023-05-06T11:30:42.413Z,19.30
2023-05-06T11:32:48.437Z,18.90
2023-05-06T11:34:57.240Z,18.90
2023-05-06T11:37:06.091Z,19.10
2023-05-06T11:39:13.498Z,19.20
2023-05-06T11:41:18.976Z,19.30
2023-05-06T11:43:24.937Z,19.50
2023-05-06T11:45:29.762Z,19.00
2023-05-06T11:47:35.630Z,19.00
2023-05-06T11:49:43.708Z,19.40
2023-05-06T11:51:51.914Z,19.60
2023-05-06T11:54:10.556Z,19.60
2023-05-06T11:56:18.698Z,19.40
2023-05-06T11:58:28.450Z,19.40
2023-05-06T12:00:37.313Z,19.30
2023-05-06T12:02:44.824Z,19.40
2023-05-06T12:04:52.728Z,19.50
2023-05-06T12:06:59.272Z,19.70
2023-05-06T12:09:06.152Z,19.80
2023-05-06T12:11:15.879Z,20.00
2023-05-06T12:13:23.822Z,20.30
2023-05-06T12:15:34.310Z,20.70
2023-05-06T12:17:39.275Z,21.20
2023-05-06T12:19:46.140Z,21.10
2023-05-06T12:21:51.034Z,20.70
2023-05-06T12:23:56.679Z,21.20
2023-05-06T12:26:05.633Z,21.50
2023-05-06T12:28:17.798Z,21.30
2023-05-06T12:30:41.226Z,20.90
2023-05-06T12:33:04.951Z,21.60
2023-05-06T12:35:10.730Z,20.80
2023-05-06T12:37:26.675Z,20.90
2023-05-06T12:39:36.842Z,21.30
2023-05-06T12:41:43.726Z,21.10
2023-05-06T12:43:48.933Z,21.00
2023-05-06T12:46:09.798Z,21.10
2023-05-06T12:48:19.288Z,22.00
2023-05-06T12:50:43.973Z,22.80
2023-05-06T12:52:49.086Z,22.70
2023-05-06T12:54:55.434Z,22.90
2023-05-06T12:57:01.007Z,23.70
2023-05-06T12:59:06.601Z,23.60
2023-05-06T13:01:15.787Z,23.90
2023-05-06T13:03:22.061Z,24.00
2023-05-06T13:05:33.447Z,23.70
2023-05-06T13:07:40.670Z,22.80
2023-05-06T13:09:45.784Z,22.50
2023-05-06T13:11:53.238Z,22.00
2023-05-06T13:13:58.117Z,21.40
2023-05-06T13:16:05.040Z,21.20
2023-05-06T13:18:12.797Z,21.30
2023-05-06T13:20:18.599Z,21.60
2023-05-06T13:22:26.097Z,21.30
2023-05-06T13:24:32.235Z,21.40
2023-05-06T13:26:37.360Z,21.60
2023-05-06T13:28:42.546Z,22.20
2023-05-06T13:30:47.676Z,23.30
2023-05-06T13:32:54.985Z,24.30
2023-05-06T13:35:02.420Z,23.20
2023-05-06T13:37:07.878Z,22.80
2023-05-06T13:39:12.721Z,22.90
2023-05-06T13:41:17.625Z,21.80
2023-05-06T13:43:24.754Z,21.30
2023-05-06T13:45:30.544Z,21.30
2023-05-06T13:47:36.530Z,21.20
2023-05-06T13:49:41.396Z,20.80
2023-05-06T13:51:53.976Z,20.80
2023-05-06T13:54:00.803Z,21.00
2023-05-06T13:56:06.127Z,20.90
2023-05-06T13:58:11.146Z,21.40
2023-05-06T14:00:17.191Z,22.60
2023-05-06T14:02:24.205Z,23.00
2023-05-06T14:04:29.232Z,23.30
2023-05-06T14:06:37.045Z,23.30
2023-05-06T14:08:47.088Z,23.30
2023-05-06T14:10:54.378Z,23.80
2023-05-06T14:13:07.795Z,24.00
2023-05-06T14:15:14.947Z,24.40
2023-05-06T14:17:22.503Z,24.70
2023-05-06T14:19:27.660Z,25.10
2023-05-06T14:21:34.635Z,24.40
2023-05-06T14:23:39.717Z,24.30
2023-05-06T14:25:47.221Z,24.50
2023-05-06T14:27:53.073Z,24.10
2023-05-06T14:29:58.183Z,23.90
2023-05-06T14:32:03.482Z,23.70
2023-05-06T14:34:10.414Z,22.80
2023-05-06T14:36:20.878Z,22.20
2023-05-06T14:38:25.965Z,22.30
2023-05-06T14:40:34.797Z,21.60
2023-05-06T14:42:43.130Z,22.10
2023-05-06T14:44:51.350Z,23.00
2023-05-06T14:46:56.452Z,23.00
2023-05-06T14:49:01.542Z,23.60
2023-05-06T14:51:06.702Z,23.90
2023-05-06T14:53:12.267Z,23.90
2023-05-06T14:55:17.427Z,24.20
2023-05-06T14:57:22.596Z,23.90
2023-05-06T14:59:31.093Z,23.90
2023-05-06T15:01:36.612Z,24.60
2023-05-06T15:03:41.969Z,25.50
2023-05-06T15:05:47.384Z,25.90
2023-05-06T15:07:53.253Z,26.40
2023-05-06T15:09:58.721Z,26.60
2023-05-06T15:12:03.941Z,26.70
2023-05-06T15:14:12.816Z,27.40
2023-05-06T15:16:21.041Z,27.30
2023-05-06T15:18:26.477Z,27.70
2023-05-06T15:20:31.328Z,27.20
2023-05-06T15:22:39.466Z,26.70
2023-05-06T15:24:44.782Z,26.10
2023-05-06T15:26:50.795Z,25.30
2023-05-06T15:28:56.807Z,25.30
2023-05-06T15:31:01.696Z,25.30
2023-05-06T15:33:09.192Z,25.30
2023-05-06T15:35:14.036Z,25.40
2023-05-06T15:37:19.498Z,26.10
2023-05-06T15:39:25.158Z,26.50
2023-05-06T15:41:32.429Z,26.10
2023-05-06T15:43:38.867Z,25.50
2023-05-06T15:45:46.343Z,25.20
2023-05-06T15:47:51.326Z,25.20
2023-05-06T15:52:07.074Z,24.60
2023-05-06T15:54:18.436Z,24.70
2023-05-06T15:56:24.139Z,24.40
2023-05-06T15:58:29.046Z,24.30
2023-05-06T16:00:35.291Z,24.20
2023-05-06T16:02:40.625Z,24.20
2023-05-06T16:04:46.998Z,24.20
2023-05-06T16:06:56.039Z,24.30
2023-05-06T16:09:02.290Z,24.10
2023-05-06T16:11:07.815Z,24.10
2023-05-06T16:13:13.345Z,23.90
2023-05-06T16:15:18.974Z,23.90
2023-05-06T16:17:23.885Z,23.70
2023-05-06T16:19:32.408Z,23.60
2023-05-06T16:21:37.682Z,23.40
2023-05-06T16:23:45.095Z,23.60
2023-05-06T16:25:51.489Z,23.40
2023-05-06T16:27:58.710Z,23.60
2023-05-06T16:30:09.336Z,23.40
2023-05-06T16:32:16.100Z,23.50
2023-05-06T16:34:24.574Z,23.90
2023-05-06T16:36:31.573Z,23.90
2023-05-06T16:38:36.953Z,23.50
2023-05-06T16:40:53.644Z,23.40
2023-05-06T16:42:58.525Z,23.20
2023-05-06T16:45:06.246Z,22.90
2023-05-06T16:47:11.381Z,22.90
2023-05-06T16:49:16.763Z,22.90
2023-05-06T16:51:30.717Z,22.80
2023-05-06T16:53:36.799Z,22.80
2023-05-06T16:55:48.436Z,22.70
2023-05-06T16:57:57.069Z,22.70
2023-05-06T17:00:02.180Z,22.40
2023-05-06T17:02:07.958Z,22.30
2023-05-06T17:04:13.048Z,22.30
2023-05-06T17:06:18.374Z,22.20
2023-05-06T17:08:27.681Z,22.20
2023-05-06T17:10:32.501Z,22.00
2023-05-06T17:12:40.266Z,21.70
2023-05-06T17:14:47.675Z,21.90
2023-05-06T17:16:55.081Z,21.50
2023-05-06T17:18:59.930Z,21.50
2023-05-06T17:21:05.106Z,21.70
2023-05-06T17:23:10.036Z,21.80
2023-05-06T17:25:14.986Z,21.50
2023-05-06T17:27:21.807Z,21.60
2023-05-06T17:29:26.761Z,21.30
2023-05-06T17:31:39.247Z,21.40
2023-05-06T17:33:45.261Z,21.40
2023-05-06T17:35:50.448Z,21.10
2023-05-06T17:37:56.425Z,20.70
2023-05-06T17:40:01.984Z,20.80
2023-05-06T17:42:09.194Z,21.00
2023-05-06T17:44:17.560Z,20.90
2023-05-06T17:46:25.641Z,20.80
2023-05-06T17:48:35.694Z,20.60
2023-05-06T17:50:40.543Z,20.40
2023-05-06T17:52:53.350Z,20.40
2023-05-06T17:55:14.689Z,20.40
2023-05-06T17:57:21.892Z,20.50
2023-05-06T17:59:28.082Z,19.60
2023-05-06T18:01:33.516Z,19.20
2023-05-06T18:03:44.011Z,19.30
2023-05-06T18:05:51.147Z,19.40
2023-05-06T18:07:56.255Z,19.80
2023-05-06T18:10:01.110Z,19.60
2023-05-06T18:12:06.210Z,19.60
2023-05-06T18:14:11.326Z,19.90
2023-05-06T18:16:18.135Z,20.00
2023-05-06T18:18:23.144Z,20.20
2023-05-06T18:20:31.625Z,20.20
2023-05-06T18:22:39.956Z,20.10
2023-05-06T18:24:44.885Z,19.90
2023-05-06T18:26:51.959Z,19.80
2023-05-06T18:28:57.371Z,19.70
2023-05-06T18:31:02.507Z,19.70
2023-05-06T18:33:07.455Z,19.60
2023-05-06T18:35:15.701Z,19.80
2023-05-06T18:37:23.399Z,19.70
2023-05-06T18:39:30.860Z,19.80
2023-05-06T18:41:38.212Z,19.70
2023-05-06T18:43:44.072Z,19.70
2023-05-06T18:45:50.412Z,19.50
2023-05-06T18:47:55.507Z,19.10
2023-05-06T18:50:02.356Z,18.80
2023-05-06T18:52:07.431Z,18.50
2023-05-06T18:54:20.060Z,18.60
2023-05-06T18:56:24.877Z,18.30
2023-05-06T18:58:30.958Z,17.50
2023-05-06T19:00:36.073Z,17.50
2023-05-06T19:02:45.322Z,17.60
2023-05-06T19:04:50.484Z,17.60
2023-05-06T19:06:56.967Z,17.90
2023-05-06T19:09:02.037Z,17.80
2023-05-06T19:11:18.476Z,18.00
2023-05-06T19:13:26.076Z,18.20
2023-05-06T19:15:31.258Z,18.10
2023-05-06T19:17:38.523Z,18.10
2023-05-06T19:19:45.841Z,18.00
2023-05-06T19:21:51.300Z,17.80
2023-05-06T19:23:59.934Z,17.70
2023-05-06T19:26:06.254Z,17.70
2023-05-06T19:28:17.398Z,17.60
2023-05-06T19:30:22.469Z,17.50
2023-05-06T19:32:32.057Z,17.60
2023-05-06T19:34:36.941Z,17.60
2023-05-06T19:36:42.021Z,17.70
2023-05-06T19:38:48.976Z,17.80
2023-05-06T19:40:56.368Z,17.60
2023-05-06T19:43:05.301Z,17.60
2023-05-06T19:45:19.209Z,17.50
2023-05-06T19:47:25.116Z,17.70
2023-05-06T19:49:38.248Z,17.80
2023-05-06T19:51:43.076Z,17.80
2023-05-06T19:53:53.345Z,17.70
2023-05-06T19:55:59.707Z,17.70
2023-05-06T19:58:07.120Z,17.60
2023-05-06T20:00:18.436Z,17.30
2023-05-06T20:02:23.771Z,17.10
2023-05-06T20:04:31.642Z,17.30
2023-05-06T20:06:37.986Z,17.50
2023-05-06T20:08:45.015Z,17.50
2023-05-06T20:10:50.780Z,17.60
2023-05-06T20:12:59.018Z,17.70
2023-05-06T20:15:04.182Z,17.70
2023-05-06T20:17:11.952Z,17.60
2023-05-06T20:19:17.606Z,17.60
2023-05-06T20:21:22.464Z,17.60
2023-05-06T20:23:27.517Z,17.50
2023-05-06T20:25:33.109Z,17.40
2023-05-06T20:27:38.075Z,17.40
2023-05-06T20:29:43.003Z,16.60
2023-05-06T20:31:50.897Z,16.10
2023-05-06T20:33:58.718Z,15.90
2023-05-06T20:36:08.372Z,16.30
2023-05-06T20:38:17.089Z,16.70
2023-05-06T20:40:24.705Z,16.70
2023-05-06T20:42:32.985Z,16.90
2023-05-06T20:44:38.048Z,17.00
2023-05-06T20:46:42.894Z,17.00
2023-05-06T20:48:51.674Z,16.90
2023-05-06T20:51:01.161Z,17.00
2023-05-06T20:53:07.950Z,16.80
2023-05-06T20:55:18.967Z,16.60
2023-05-06T20:57:28.493Z,16.70
2023-05-06T20:59:33.830Z,16.90
2023-05-06T21:01:38.790Z,17.00
2023-05-06T21:03:44.081Z,16.90
2023-05-06T21:05:49.047Z,16.80
2023-05-06T21:07:57.247Z,16.60
2023-05-06T21:10:07.372Z,16.30
2023-05-06T21:12:13.296Z,16.50
2023-05-06T21:14:23.510Z,16.50
2023-05-06T21:16:28.697Z,16.50
2023-05-06T21:18:33.569Z,16.60
2023-05-06T21:20:38.484Z,16.50
2023-05-06T21:22:44.382Z,16.20
2023-05-06T21:24:52.269Z,16.40
2023-05-06T21:27:00.796Z,16.30
2023-05-06T21:29:08.187Z,16.20
2023-05-06T21:31:13.320Z,16.30
2023-05-06T21:33:18.173Z,16.10
2023-05-06T21:35:23.519Z,16.10
2023-05-06T21:37:28.690Z,16.10
2023-05-06T21:39:33.540Z,16.20
2023-05-06T21:41:42.463Z,16.20
2023-05-06T21:43:50.222Z,16.30
2023-05-06T21:45:57.432Z,16.10
2023-05-06T21:48:02.674Z,15.90
2023-05-06T21:50:10.678Z,16.00
2023-05-06T21:52:15.599Z,16.10
2023-05-06T21:54:24.276Z,16.10
2023-05-06T21:56:32.375Z,16.20
2023-05-06T21:58:39.790Z,16.20
2023-05-06T22:00:47.252Z,16.20
2023-05-06T22:02:55.726Z,16.00
2023-05-06T22:05:06.572Z,16.00
2023-05-06T22:07:11.399Z,16.20
2023-05-06T22:09:18.190Z,16.10
2023-05-06T22:11:26.040Z,15.90
2023-05-06T22:13:36.900Z,15.90
2023-05-06T22:15:44.335Z,16.00
2023-05-06T22:17:51.348Z,16.00
2023-05-06T22:19:57.062Z,16.00
2023-05-06T22:22:02.400Z,15.90
2023-05-06T22:24:07.937Z,15.90
2023-05-06T22:26:12.770Z,15.90
2023-05-06T22:28:17.756Z,15.80
2023-05-06T22:30:22.728Z,15.90
2023-05-06T22:32:30.299Z,15.90
2023-05-06T22:34:36.822Z,15.80
2023-05-06T22:36:42.625Z,15.90
2023-05-06T22:38:48.893Z,15.90
2023-05-06T22:40:58.147Z,15.80
2023-05-06T22:43:07.161Z,15.70
2023-05-06T22:45:13.339Z,15.60
2023-05-06T22:47:20.183Z,15.80
2023-05-06T22:49:36.525Z,15.80
2023-05-06T22:51:44.262Z,15.80
2023-05-06T22:53:51.509Z,15.80
2023-05-06T22:55:57.316Z,15.90
2023-05-06T22:58:08.065Z,16.00
2023-05-06T23:00:15.136Z,15.80
2023-05-06T23:02:21.918Z,15.70
2023-05-06T23:04:30.898Z,15.60
2023-05-06T23:06:37.039Z,15.80
2023-05-06T23:08:44.109Z,15.90
2023-05-06T23:10:50.262Z,15.80
2023-05-06T23:12:56.510Z,15.90
2023-05-06T23:15:02.791Z,15.80
2023-05-06T23:17:10.231Z,15.80
2023-05-06T23:19:15.142Z,15.80
2023-05-06T23:21:22.800Z,15.60
2023-05-06T23:23:28.854Z,15.60
2023-05-06T23:25:37.451Z,15.70
2023-05-06T23:27:43.358Z,15.70
2023-05-06T23:29:48.508Z,15.30
2023-05-06T23:31:53.960Z,15.30
2023-05-06T23:33:59.065Z,15.30
2023-05-06T23:36:04.080Z,15.30
2023-05-06T23:38:14.593Z,15.40
2023-05-06T23:40:20.620Z,15.50
2023-05-06T23:42:25.941Z,15.40
2023-05-06T23:44:30.900Z,15.40
2023-05-06T23:46:36.092Z,15.20
2023-05-06T23:48:41.182Z,15.20
2023-05-06T23:50:46.098Z,15.20
2023-05-06T23:52:51.833Z,15.20
2023-05-06T23:54:59.298Z,15.00
2023-05-06T23:57:04.376Z,15.20
2023-05-06T23:59:09.495Z,15.40
